createdAt,value
2019-04-04T00:00:08.276Z,26.80
2019-04-04T00:02:38.742Z,26.27
2019-04-04T00:05:09.049Z,22.93
2019-04-04T00:07:39.451Z,22.70
2019-04-04T00:10:09.903Z,19.97
2019-04-04T00:12:40.237Z,21.73
2019-04-04T00:15:10.528Z,21.03
2019-04-04T00:17:40.853Z,21.50
2019-04-04T00:20:12.941Z,25.60
2019-04-04T00:22:43.273Z,24.53
2019-04-04T00:25:13.569Z,27.63
2019-04-04T00:27:44.675Z,27.37
2019-04-04T00:30:16.126Z,25.17
2019-04-04T00:32:47.169Z,21.73
2019-04-04T00:35:17.423Z,23.03
2019-04-04T00:37:47.668Z,19.30
2019-04-04T00:40:19.041Z,22.80
2019-04-04T00:42:49.339Z,21.37
2019-04-04T00:45:19.624Z,21.67
2019-04-04T00:47:49.994Z,23.57
2019-04-04T00:50:20.243Z,22.33
2019-04-04T00:52:50.512Z,19.93
2019-04-04T00:55:21.110Z,20.00
2019-04-04T00:57:51.456Z,20.50
2019-04-04T01:00:22.018Z,21.47
2019-04-04T01:02:53.757Z,23.53
2019-04-04T01:05:24.002Z,23.90
2019-04-04T01:07:54.409Z,21.63
2019-04-04T01:10:24.675Z,23.83
2019-04-04T01:12:54.976Z,17.73
2019-04-04T01:15:25.173Z,20.83
2019-04-04T01:17:55.598Z,17.53
2019-04-04T01:20:26.788Z,16.27
2019-04-04T01:22:57.533Z,19.30
2019-04-04T01:25:27.876Z,24.80
2019-04-04T01:27:58.496Z,19.50
2019-04-04T01:30:28.871Z,20.53
2019-04-04T01:32:59.479Z,19.20
2019-04-04T01:35:29.816Z,14.83
2019-04-04T01:38:03.089Z,17.43
2019-04-04T01:40:33.964Z,17.87
2019-04-04T01:43:04.164Z,16.87
2019-04-04T01:45:34.396Z,18.03
2019-04-04T01:48:04.595Z,15.80
2019-04-04T01:50:34.898Z,17.50
2019-04-04T01:53:05.486Z,20.87
2019-04-04T01:55:36.764Z,18.20
2019-04-04T01:58:07.908Z,21.27
2019-04-04T02:00:38.932Z,17.90
2019-04-04T02:03:09.141Z,20.07
2019-04-04T02:05:39.980Z,15.17
2019-04-04T02:08:10.198Z,19.03
2019-04-04T02:10:40.631Z,18.43
2019-04-04T02:13:11.240Z,17.97
2019-04-04T02:15:42.849Z,16.33
2019-04-04T02:18:13.346Z,18.33
2019-04-04T02:20:43.899Z,19.47
2019-04-04T02:23:14.196Z,18.67
2019-04-04T02:25:44.436Z,21.00
2019-04-04T02:28:14.654Z,16.20
2019-04-04T02:30:48.029Z,18.30
2019-04-04T02:33:17.044Z,17.07
2019-04-04T02:35:47.391Z,15.17
2019-04-04T02:38:17.579Z,17.60
2019-04-04T02:40:47.827Z,18.13
2019-04-04T02:43:18.108Z,19.13
2019-04-04T02:45:48.861Z,15.93
2019-04-04T02:48:23.409Z,15.23
2019-04-04T02:50:51.318Z,14.17
2019-04-04T02:53:21.567Z,16.30
2019-04-04T02:55:51.848Z,12.97
2019-04-04T02:58:22.017Z,16.30
2019-04-04T03:00:52.520Z,15.80
2019-04-04T03:03:23.872Z,12.83
2019-04-04T03:05:54.033Z,12.67
2019-04-04T03:08:24.310Z,17.97
2019-04-04T03:10:54.538Z,15.77
2019-04-04T03:13:24.757Z,16.33
2019-04-04T03:15:54.984Z,17.13
2019-04-04T03:18:25.262Z,13.57
2019-04-04T03:20:55.906Z,15.40
2019-04-04T03:23:26.154Z,15.87
2019-04-04T03:25:56.457Z,17.70
2019-04-04T03:28:31.510Z,17.00
2019-04-04T03:31:02.903Z,17.00
2019-04-04T03:33:32.627Z,15.03
2019-04-04T03:36:03.110Z,13.20
2019-04-04T03:38:33.419Z,13.40
2019-04-04T03:41:03.643Z,15.73
2019-04-04T03:43:33.857Z,16.40
2019-04-04T03:46:04.045Z,14.87
2019-04-04T03:48:34.301Z,15.17
2019-04-04T03:51:05.216Z,16.57
2019-04-04T03:53:36.249Z,10.47
2019-04-04T03:56:06.478Z,16.27
2019-04-04T03:58:36.761Z,15.23
2019-04-04T04:01:07.108Z,20.77
2019-04-04T04:03:37.512Z,18.57
2019-04-04T04:06:08.852Z,13.83
2019-04-04T04:08:39.737Z,11.80
2019-04-04T04:11:09.939Z,13.00
2019-04-04T04:13:40.521Z,13.13
2019-04-04T04:16:12.830Z,18.67
2019-04-04T04:18:43.115Z,13.87
2019-04-04T04:21:13.419Z,14.67
2019-04-04T04:23:43.890Z,18.60
2019-04-04T04:26:14.128Z,13.27
2019-04-04T04:28:44.864Z,13.27
2019-04-04T04:31:15.595Z,13.53
2019-04-04T04:33:46.118Z,15.43
2019-04-04T04:36:17.935Z,13.03
2019-04-04T04:38:48.272Z,15.37
2019-04-04T04:41:20.459Z,12.30
2019-04-04T04:43:50.475Z,13.60
2019-04-04T04:46:20.694Z,12.83
2019-04-04T04:48:51.335Z,15.50
2019-04-04T04:51:21.589Z,13.50
2019-04-04T04:53:52.008Z,13.33
2019-04-04T04:56:22.217Z,16.30
2019-04-04T04:58:55.341Z,14.27
2019-04-04T05:01:25.039Z,15.33
2019-04-04T05:03:56.548Z,14.37
2019-04-04T05:06:27.286Z,14.23
2019-04-04T05:09:01.099Z,12.33
2019-04-04T05:11:32.685Z,14.33
2019-04-04T05:14:03.290Z,13.40
2019-04-04T05:16:33.577Z,12.37
2019-04-04T05:19:04.004Z,11.23
2019-04-04T05:21:34.761Z,15.70
2019-04-04T05:24:05.159Z,11.60
2019-04-04T05:26:38.501Z,15.00
2019-04-04T05:29:08.768Z,9.70
2019-04-04T05:31:39.440Z,10.67
2019-04-04T05:34:09.752Z,10.00
2019-04-04T05:36:45.266Z,10.30
2019-04-04T05:39:18.113Z,15.53
2019-04-04T05:41:48.569Z,12.43
2019-04-04T05:44:19.044Z,9.90
2019-04-04T05:46:52.011Z,10.53
2019-04-04T05:49:21.893Z,11.20
2019-04-04T05:51:52.168Z,10.97
2019-04-04T05:54:22.366Z,9.43
2019-04-04T05:56:52.644Z,11.30
2019-04-04T05:59:23.925Z,10.43
2019-04-04T06:01:56.418Z,10.77
2019-04-04T06:04:27.405Z,12.97
2019-04-04T06:06:57.733Z,8.70
2019-04-04T06:09:27.971Z,9.57
2019-04-04T06:11:58.600Z,11.80
2019-04-04T06:14:30.005Z,13.67
2019-04-04T06:17:01.295Z,11.90
2019-04-04T06:19:31.645Z,9.83
2019-04-04T06:22:03.589Z,9.43
2019-04-04T06:24:33.818Z,12.87
2019-04-04T06:27:04.675Z,10.27
2019-04-04T06:29:36.505Z,13.00
2019-04-04T06:32:07.656Z,10.80
2019-04-04T06:34:38.044Z,12.20
2019-04-04T06:37:13.424Z,8.63
2019-04-04T06:39:47.880Z,10.07
2019-04-04T06:42:22.805Z,9.77
2019-04-04T06:45:02.923Z,14.53
2019-04-04T06:47:43.141Z,8.73
2019-04-04T06:50:22.341Z,9.03
2019-04-04T06:53:01.627Z,10.73
2019-04-04T06:55:39.731Z,11.30
2019-04-04T06:58:17.068Z,8.27
2019-04-04T07:00:49.922Z,13.57
2019-04-04T07:03:20.172Z,10.20
2019-04-04T07:05:51.898Z,9.93
2019-04-04T07:08:29.155Z,8.07
2019-04-04T07:11:03.234Z,9.87
2019-04-04T07:13:42.205Z,10.53
2019-04-04T07:16:08.033Z,10.13
2019-04-04T07:18:39.061Z,8.97
2019-04-04T07:21:10.748Z,11.50
2019-04-04T07:23:42.085Z,10.73
2019-04-04T07:26:14.890Z,10.13
2019-04-04T07:28:44.850Z,10.00
2019-04-04T07:31:17.554Z,11.57
2019-04-04T07:33:49.387Z,8.70
2019-04-04T07:36:20.228Z,9.87
2019-04-04T07:38:51.122Z,9.90
2019-04-04T07:41:21.465Z,9.37
2019-04-04T07:43:52.360Z,11.23
2019-04-04T07:46:22.711Z,10.03
2019-04-04T07:48:58.690Z,10.43
2019-04-04T07:51:36.300Z,7.63
2019-04-04T07:54:07.378Z,8.37
2019-04-04T07:56:38.823Z,10.60
2019-04-04T07:59:09.071Z,8.67
2019-04-04T08:01:50.941Z,10.03
2019-04-04T08:04:16.059Z,10.90
2019-04-04T08:06:46.451Z,7.23
2019-04-04T08:09:20.345Z,13.13
2019-04-04T08:11:52.236Z,8.50
2019-04-04T08:14:22.550Z,13.80
2019-04-04T08:16:52.935Z,8.43
2019-04-04T08:19:23.730Z,10.20
2019-04-04T08:21:55.284Z,8.50
2019-04-04T08:24:27.960Z,8.77
2019-04-04T08:26:58.329Z,8.80
2019-04-04T08:29:28.965Z,7.80
2019-04-04T08:32:03.113Z,8.93
2019-04-04T08:34:36.238Z,8.73
2019-04-04T08:37:06.158Z,9.70
2019-04-04T08:39:38.835Z,8.00
2019-04-04T08:42:16.312Z,6.77
2019-04-04T08:44:57.807Z,8.00
2019-04-04T08:47:38.766Z,6.80
2019-04-04T08:50:10.134Z,8.73
2019-04-04T08:52:40.390Z,7.37
2019-04-04T08:55:13.390Z,9.43
2019-04-04T08:57:43.854Z,7.20
2019-04-04T09:00:16.113Z,8.47
2019-04-04T09:02:46.417Z,9.47
2019-04-04T09:05:16.646Z,10.13
2019-04-04T09:07:46.959Z,17.33
2019-04-04T09:10:17.898Z,7.00
2019-04-04T09:12:51.519Z,6.67
2019-04-04T09:15:22.362Z,6.97
2019-04-04T09:17:52.866Z,9.80
2019-04-04T09:20:23.095Z,9.47
2019-04-04T09:22:53.460Z,7.33
2019-04-04T09:25:23.854Z,7.53
2019-04-04T09:27:54.243Z,8.97
2019-04-04T09:30:26.008Z,8.97
2019-04-04T09:32:57.898Z,10.83
2019-04-04T09:35:28.287Z,8.27
2019-04-04T09:37:58.532Z,8.10
2019-04-04T09:40:30.498Z,10.27
2019-04-04T09:43:01.261Z,7.70
2019-04-04T09:45:31.631Z,8.87
2019-04-04T09:48:01.882Z,7.30
2019-04-04T09:50:32.151Z,8.80
2019-04-04T09:53:06.114Z,10.50
2019-04-04T09:55:36.699Z,9.07
2019-04-04T09:58:08.562Z,9.43
2019-04-04T10:00:41.908Z,9.00
2019-04-04T10:03:15.378Z,10.27
2019-04-04T10:05:45.696Z,8.03
2019-04-04T10:08:17.411Z,7.53
2019-04-04T10:10:47.836Z,7.47
2019-04-04T10:13:18.066Z,7.77
2019-04-04T10:15:48.489Z,9.73
2019-04-04T10:18:18.713Z,6.67
2019-04-04T10:20:48.943Z,8.37
2019-04-04T10:23:19.783Z,8.90
2019-04-04T10:25:50.150Z,6.40
2019-04-04T10:28:23.313Z,9.43
2019-04-04T10:30:53.417Z,7.37
2019-04-04T10:33:23.708Z,6.73
2019-04-04T10:35:53.993Z,7.87
2019-04-04T10:38:24.449Z,9.03
2019-04-04T10:40:54.689Z,8.83
2019-04-04T10:43:25.033Z,8.73
2019-04-04T10:45:55.256Z,32.57
2019-04-04T10:48:25.973Z,8.50
2019-04-04T10:50:57.239Z,8.53
2019-04-04T10:53:29.342Z,11.13
2019-04-04T10:55:59.570Z,6.10
2019-04-04T10:58:29.935Z,6.87
2019-04-04T11:01:02.525Z,6.43
2019-04-04T11:03:33.940Z,7.47
2019-04-04T11:06:04.198Z,7.83
2019-04-04T11:08:35.916Z,10.20
2019-04-04T11:11:06.332Z,10.00
2019-04-04T11:13:36.784Z,7.97
2019-04-04T11:16:08.151Z,9.80
2019-04-04T11:18:38.439Z,7.27
2019-04-04T11:21:08.673Z,9.07
2019-04-04T11:23:39.157Z,7.73
2019-04-04T11:26:09.719Z,19.10
2019-04-04T11:28:40.089Z,10.33
2019-04-04T11:31:10.507Z,10.37
2019-04-04T11:33:41.538Z,8.57
2019-04-04T11:36:11.838Z,9.33
2019-04-04T11:38:44.131Z,9.80
2019-04-04T11:41:15.068Z,6.40
2019-04-04T11:43:45.399Z,9.57
2019-04-04T11:46:15.661Z,8.00
2019-04-04T11:48:45.953Z,6.47
2019-04-04T11:51:16.260Z,8.83
2019-04-04T11:53:46.589Z,6.97
2019-04-04T11:56:17.024Z,6.63
2019-04-04T11:58:47.366Z,9.20
2019-04-04T12:01:18.132Z,10.83
2019-04-04T12:03:48.415Z,7.73
2019-04-04T12:06:18.818Z,8.60
2019-04-04T12:08:49.049Z,11.20
2019-04-04T12:11:22.359Z,11.80
2019-04-04T12:13:53.471Z,11.50
2019-04-04T12:16:25.496Z,7.77
2019-04-04T12:19:03.985Z,7.20
2019-04-04T12:21:37.137Z,7.43
2019-04-04T12:24:07.391Z,10.33
2019-04-04T12:26:37.855Z,13.00
2019-04-04T12:29:08.167Z,8.17
2019-04-04T12:31:38.652Z,8.53
2019-04-04T12:34:08.961Z,16.80
2019-04-04T12:36:40.016Z,9.10
2019-04-04T12:39:10.261Z,10.20
2019-04-04T12:41:42.177Z,9.30
2019-04-04T12:44:12.582Z,6.70
2019-04-04T12:46:42.980Z,8.53
2019-04-04T12:49:13.428Z,7.70
2019-04-04T12:51:45.951Z,11.47
2019-04-04T12:54:17.125Z,9.30
2019-04-04T12:56:47.370Z,7.07
2019-04-04T12:59:21.457Z,8.60
2019-04-04T13:01:51.745Z,8.83
2019-04-04T13:04:30.910Z,7.93
2019-04-04T13:06:53.915Z,11.33
2019-04-04T13:09:24.267Z,11.23
2019-04-04T13:11:56.757Z,9.33
2019-04-04T13:14:37.314Z,6.77
2019-04-04T13:17:07.681Z,16.30
2019-04-04T13:19:40.363Z,10.00
2019-04-04T13:22:10.948Z,14.30
2019-04-04T13:24:41.550Z,12.13
2019-04-04T13:27:13.609Z,8.20
2019-04-04T13:29:45.933Z,11.27
2019-04-04T13:32:16.271Z,7.73
2019-04-04T13:34:58.593Z,10.73
2019-04-04T13:37:19.079Z,10.83
2019-04-04T13:39:49.415Z,9.50
2019-04-04T13:42:19.663Z,8.87
2019-04-04T13:44:50.670Z,9.37
2019-04-04T13:47:22.044Z,9.70
2019-04-04T13:49:52.387Z,6.83
2019-04-04T13:52:24.215Z,8.27
2019-04-04T13:54:55.950Z,10.77
2019-04-04T13:57:27.245Z,13.50
2019-04-04T13:59:57.647Z,10.67
2019-04-04T14:02:29.811Z,14.33
2019-04-04T14:05:09.575Z,11.87
2019-04-04T14:07:32.086Z,15.97
2019-04-04T14:10:02.629Z,7.40
2019-04-04T14:12:32.954Z,7.80
2019-04-04T14:15:03.534Z,11.10
2019-04-04T14:17:33.895Z,12.27
2019-04-04T14:20:04.503Z,12.27
2019-04-04T14:22:34.681Z,9.07
2019-04-04T14:25:05.766Z,9.27
2019-04-04T14:27:37.613Z,11.40
2019-04-04T14:30:10.287Z,11.10
2019-04-04T14:32:41.631Z,11.00
2019-04-04T14:35:12.080Z,9.07
2019-04-04T14:37:43.389Z,12.13
2019-04-04T14:40:13.905Z,9.60
2019-04-04T14:42:44.115Z,7.23
2019-04-04T14:45:14.391Z,9.60
2019-04-04T14:47:44.981Z,8.47
2019-04-04T14:50:16.473Z,9.70
2019-04-04T14:52:46.703Z,10.63
2019-04-04T14:55:17.964Z,10.17
2019-04-04T14:57:48.467Z,9.13
2019-04-04T15:00:20.420Z,8.60
2019-04-04T15:02:50.800Z,8.90
2019-04-04T15:05:22.274Z,7.90
2019-04-04T15:07:52.496Z,9.20
2019-04-04T15:10:22.744Z,7.37
2019-04-04T15:12:52.996Z,7.60
2019-04-04T15:15:26.092Z,10.53
2019-04-04T15:17:55.335Z,7.33
2019-04-04T15:20:25.626Z,6.60
2019-04-04T15:22:55.887Z,10.23
2019-04-04T15:25:26.125Z,9.37
2019-04-04T15:27:58.815Z,9.13
2019-04-04T15:30:30.068Z,8.20
2019-04-04T15:33:02.591Z,12.27
2019-04-04T15:35:32.349Z,8.63
2019-04-04T15:38:02.633Z,8.17
2019-04-04T15:40:33.095Z,9.53
2019-04-04T15:43:04.342Z,7.00
2019-04-04T15:45:34.716Z,6.93
2019-04-04T15:48:05.004Z,9.53
2019-04-04T15:50:35.356Z,9.07
2019-04-04T15:53:05.552Z,10.17
2019-04-04T15:55:35.773Z,12.77
2019-04-04T15:58:06.303Z,11.63
2019-04-04T16:00:36.682Z,11.33
2019-04-04T16:03:09.284Z,9.53
2019-04-04T16:05:39.664Z,10.40
2019-04-04T16:08:11.136Z,7.33
2019-04-04T16:10:41.636Z,9.37
2019-04-04T16:13:11.992Z,16.10
2019-04-04T16:15:42.494Z,8.83
2019-04-04T16:18:12.751Z,12.37
2019-04-04T16:20:43.056Z,8.40
2019-04-04T16:23:13.306Z,10.17
2019-04-04T16:25:43.563Z,9.70
2019-04-04T16:28:14.200Z,8.27
2019-04-04T16:30:44.381Z,10.23
2019-04-04T16:33:14.634Z,10.57
2019-04-04T16:35:46.071Z,10.07
2019-04-04T16:38:16.256Z,10.23
2019-04-04T16:40:47.125Z,7.93
2019-04-04T16:43:17.343Z,10.23
2019-04-04T16:45:47.544Z,14.60
2019-04-04T16:48:17.791Z,9.97
2019-04-04T16:50:48.076Z,7.73
2019-04-04T16:53:18.385Z,17.07
2019-04-04T16:55:48.657Z,9.17
2019-04-04T16:58:19.203Z,11.27
2019-04-04T17:00:51.117Z,11.57
2019-04-04T17:03:23.621Z,13.87
2019-04-04T17:05:53.908Z,14.93
2019-04-04T17:08:24.092Z,13.53
2019-04-04T17:10:54.462Z,8.63
2019-04-04T17:13:24.869Z,8.87
2019-04-04T17:15:55.090Z,8.23
2019-04-04T17:18:25.474Z,8.27
2019-04-04T17:20:56.758Z,11.17
2019-04-04T17:23:26.981Z,7.87
2019-04-04T17:25:57.504Z,7.57
2019-04-04T17:28:28.676Z,10.97
2019-04-04T17:30:58.958Z,12.67
2019-04-04T17:33:31.131Z,15.87
2019-04-04T17:36:01.431Z,10.53
2019-04-04T17:38:31.782Z,12.37
2019-04-04T17:41:04.700Z,9.80
2019-04-04T17:43:34.956Z,9.40
2019-04-04T17:46:05.478Z,9.60
2019-04-04T17:48:35.821Z,9.87
2019-04-04T17:51:06.444Z,9.27
2019-04-04T17:53:36.715Z,11.17
2019-04-04T17:56:07.429Z,8.77
2019-04-04T17:58:38.037Z,10.80
2019-04-04T18:01:10.174Z,7.57
2019-04-04T18:03:40.461Z,10.03
2019-04-04T18:06:10.648Z,10.63
2019-04-04T18:08:40.868Z,11.47
2019-04-04T18:11:11.299Z,10.70
2019-04-04T18:13:41.572Z,12.93
2019-04-04T18:16:11.769Z,9.73
2019-04-04T18:18:42.024Z,11.53
2019-04-04T18:21:12.241Z,12.77
2019-04-04T18:23:42.550Z,10.73
2019-04-04T18:26:12.763Z,10.20
2019-04-04T18:28:43.497Z,10.33
2019-04-04T18:31:13.692Z,12.50
2019-04-04T18:33:44.035Z,10.03
2019-04-04T18:36:15.002Z,10.87
2019-04-04T18:38:46.012Z,11.93
2019-04-04T18:41:17.715Z,9.57
2019-04-04T18:43:48.190Z,14.93
2019-04-04T18:46:18.444Z,10.63
2019-04-04T18:48:48.755Z,13.67
2019-04-04T18:51:19.147Z,12.63
2019-04-04T18:53:49.445Z,9.43
2019-04-04T18:56:19.698Z,10.50
2019-04-04T18:58:49.932Z,12.10
2019-04-04T19:01:22.401Z,10.87
2019-04-04T19:03:52.899Z,11.37
2019-04-04T19:06:23.812Z,13.30
2019-04-04T19:08:54.063Z,10.60
2019-04-04T19:11:24.347Z,13.10
2019-04-04T19:13:54.693Z,11.03
2019-04-04T19:16:24.929Z,9.80
2019-04-04T19:18:55.132Z,12.10
2019-04-04T19:21:25.518Z,11.77
2019-04-04T19:23:55.871Z,9.20
2019-04-04T19:26:26.075Z,12.17
2019-04-04T19:28:57.977Z,14.83
2019-04-04T19:31:28.184Z,11.87
2019-04-04T19:33:58.488Z,12.63
2019-04-04T19:36:28.736Z,12.53
2019-04-04T19:38:58.968Z,12.43
2019-04-04T19:41:29.308Z,10.70
2019-04-04T19:43:59.779Z,12.37
2019-04-04T19:46:36.910Z,9.40
2019-04-04T19:49:02.890Z,10.27
2019-04-04T19:51:33.285Z,14.77
2019-04-04T19:54:03.787Z,15.47
2019-04-04T19:56:34.297Z,11.50
2019-04-04T19:59:04.697Z,10.70
2019-04-04T20:01:36.599Z,10.13
2019-04-04T20:04:07.092Z,9.13
2019-04-04T20:06:38.953Z,11.60
2019-04-04T20:09:11.307Z,9.40
2019-04-04T20:11:41.748Z,9.50
2019-04-04T20:14:11.970Z,11.30
2019-04-04T20:16:43.899Z,13.47
2019-04-04T20:19:14.252Z,8.97
2019-04-04T20:21:45.607Z,14.30
2019-04-04T20:24:17.436Z,14.10
2019-04-04T20:26:48.144Z,12.47
2019-04-04T20:29:19.201Z,13.03
2019-04-04T20:31:52.632Z,14.87
2019-04-04T20:34:22.929Z,13.90
2019-04-04T20:36:57.055Z,10.60
2019-04-04T20:39:28.657Z,12.87
2019-04-04T20:41:58.885Z,11.17
2019-04-04T20:44:29.652Z,11.03
2019-04-04T20:47:01.524Z,10.73
2019-04-04T20:49:31.773Z,9.10
2019-04-04T20:52:01.972Z,14.50
2019-04-04T20:54:32.182Z,11.00
2019-04-04T20:57:02.430Z,14.07
2019-04-04T20:59:34.986Z,11.83
2019-04-04T21:02:05.254Z,10.80
2019-04-04T21:04:35.550Z,15.27
2019-04-04T21:07:05.795Z,10.50
2019-04-04T21:09:36.061Z,10.20
2019-04-04T21:12:06.498Z,9.57
2019-04-04T21:14:37.795Z,11.53
2019-04-04T21:17:08.390Z,14.20
2019-04-04T21:19:39.021Z,11.60
2019-04-04T21:22:09.301Z,13.73
2019-04-04T21:24:39.890Z,10.67
2019-04-04T21:27:10.138Z,11.27
2019-04-04T21:29:40.847Z,11.40
2019-04-04T21:32:11.119Z,13.90
2019-04-04T21:34:41.363Z,11.27
2019-04-04T21:37:11.645Z,10.57
2019-04-04T21:39:41.888Z,9.87
2019-04-04T21:42:12.739Z,10.47
2019-04-04T21:44:42.923Z,9.13
2019-04-04T21:47:13.179Z,16.43
2019-04-04T21:49:43.472Z,10.33
2019-04-04T21:52:13.728Z,12.37
2019-04-04T21:54:43.949Z,13.40
2019-04-04T21:57:14.152Z,9.10
2019-04-04T21:59:45.095Z,12.83
2019-04-04T22:02:15.603Z,14.73
2019-04-04T22:04:45.979Z,14.03
2019-04-04T22:07:16.185Z,18.10
2019-04-04T22:09:46.405Z,21.23
2019-04-04T22:12:16.759Z,20.93
2019-04-04T22:14:47.139Z,12.53
2019-04-04T22:17:17.380Z,9.10
2019-04-04T22:19:47.597Z,9.73
2019-04-04T22:22:17.846Z,10.30
2019-04-04T22:24:48.120Z,11.47
2019-04-04T22:27:18.347Z,8.57
2019-04-04T22:29:49.005Z,11.93
2019-04-04T22:32:20.315Z,8.70
2019-04-04T22:34:50.593Z,10.53
2019-04-04T22:37:20.926Z,10.00
2019-04-04T22:39:51.190Z,9.27
2019-04-04T22:42:21.409Z,9.30
2019-04-04T22:44:51.606Z,9.70
2019-04-04T22:47:21.836Z,10.30
2019-04-04T22:49:52.160Z,8.93
2019-04-04T22:52:22.394Z,10.10
2019-04-04T22:54:52.638Z,15.27
2019-04-04T22:57:22.858Z,10.77
2019-04-04T22:59:53.080Z,10.33
2019-04-04T23:02:23.335Z,13.20
2019-04-04T23:04:53.640Z,9.30
2019-04-04T23:07:23.838Z,11.43
2019-04-04T23:09:54.087Z,11.30
2019-04-04T23:12:24.380Z,10.30
2019-04-04T23:14:54.598Z,11.87
2019-04-04T23:17:24.871Z,12.10
2019-04-04T23:19:55.156Z,10.23
2019-04-04T23:22:25.387Z,8.43
2019-04-04T23:24:55.663Z,13.90
2019-04-04T23:27:25.954Z,10.80
2019-04-04T23:29:56.405Z,14.17
2019-04-04T23:32:26.673Z,9.87
2019-04-04T23:34:56.962Z,12.37
2019-04-04T23:37:27.204Z,10.13
2019-04-04T23:39:57.440Z,14.80
2019-04-04T23:42:27.672Z,13.13
2019-04-04T23:45:01.114Z,12.67
2019-04-04T23:47:41.622Z,11.67
2019-04-04T23:50:01.856Z,10.67
2019-04-04T23:52:32.108Z,11.40
2019-04-04T23:55:02.328Z,11.80
2019-04-04T23:57:33.027Z,12.47
